createdAt,value
2024-02-21T00:00:55.329Z,3.70
2024-02-21T00:06:00.418Z,3.60
2024-02-21T00:11:03.851Z,3.50
2024-02-21T00:16:08.858Z,3.40
2024-02-21T00:21:19.090Z,3.40
2024-02-21T00:26:23.328Z,3.40
2024-02-21T00:31:27.627Z,3.40
2024-02-21T00:36:33.260Z,3.40
2024-02-21T00:41:39.858Z,3.40
2024-02-21T00:46:44.318Z,3.50
2024-02-21T00:51:55.239Z,3.40
2024-02-21T00:57:00.068Z,3.40
2024-02-21T01:02:09.049Z,3.40
2024-02-21T01:07:15.137Z,3.40
2024-02-21T01:12:19.701Z,3.40
2024-02-21T01:17:25.206Z,3.40
2024-02-21T01:22:31.118Z,3.50
2024-02-21T01:27:35.447Z,3.50
2024-02-21T01:32:46.702Z,3.50
2024-02-21T01:37:53.254Z,3.60
2024-02-21T01:42:58.942Z,3.90
2024-02-21T01:48:10.222Z,4.30
2024-02-21T01:53:19.829Z,4.30
2024-02-21T01:58:33.051Z,4.30
2024-02-21T02:03:38.686Z,4.10
2024-02-21T02:08:45.696Z,4.30
2024-02-21T02:13:50.219Z,4.50
2024-02-21T02:18:54.513Z,4.60
2024-02-21T02:24:00.528Z,4.70
2024-02-21T02:29:05.287Z,4.70
2024-02-21T02:34:11.060Z,4.60
2024-02-21T02:39:18.836Z,4.50
2024-02-21T02:44:23.291Z,4.50
2024-02-21T02:49:27.645Z,4.50
2024-02-21T02:54:32.744Z,4.60
2024-02-21T02:59:37.283Z,4.70
2024-02-21T03:04:46.362Z,4.80
2024-02-21T03:09:52.437Z,4.90
2024-02-21T03:14:57.097Z,5.00
2024-02-21T03:20:01.779Z,5.00
2024-02-21T03:25:14.131Z,5.00
2024-02-21T03:30:19.884Z,4.90
2024-02-21T03:35:27.935Z,4.80
2024-02-21T03:40:36.279Z,4.60
2024-02-21T03:45:40.827Z,4.40
2024-02-21T03:50:45.112Z,4.20
2024-02-21T03:55:50.603Z,4.10
2024-02-21T04:00:55.008Z,4.00
2024-02-21T04:05:59.242Z,4.00
2024-02-21T04:11:05.270Z,4.00
2024-02-21T04:16:09.779Z,4.00
2024-02-21T04:21:16.902Z,3.90
2024-02-21T04:26:22.729Z,3.80
2024-02-21T04:31:27.291Z,3.70
2024-02-21T04:36:31.658Z,3.60
2024-02-21T04:41:37.621Z,3.40
2024-02-21T04:46:45.440Z,3.40
2024-02-21T04:51:49.544Z,3.30
2024-02-21T04:56:55.614Z,3.30
2024-02-21T05:02:00.244Z,3.20
2024-02-21T05:07:04.702Z,3.10
2024-02-21T05:12:11.429Z,2.90
2024-02-21T05:17:17.997Z,2.80
2024-02-21T05:22:22.532Z,2.60
2024-02-21T05:27:28.395Z,2.50
2024-02-21T05:32:32.709Z,2.60
2024-02-21T05:37:36.596Z,2.60
2024-02-21T05:42:42.477Z,2.60
2024-02-21T05:47:46.907Z,2.50
2024-02-21T05:52:51.315Z,2.50
2024-02-21T05:58:00.579Z,2.40
2024-02-21T06:03:04.894Z,2.40
2024-02-21T06:08:10.510Z,2.40
2024-02-21T06:13:18.689Z,2.40
2024-02-21T06:18:23.093Z,2.40
2024-02-21T06:23:26.616Z,2.40
2024-02-21T06:28:31.745Z,2.50
2024-02-21T06:33:35.407Z,2.50
2024-02-21T06:38:39.018Z,2.60
2024-02-21T06:43:44.090Z,2.70
2024-02-21T06:48:48.966Z,2.70
2024-02-21T06:54:00.709Z,2.80
2024-02-21T06:59:05.934Z,3.00
2024-02-21T07:04:09.704Z,4.50
2024-02-21T07:09:13.658Z,5.80
2024-02-21T07:14:18.663Z,6.60
2024-02-21T07:19:23.030Z,6.90
2024-02-21T07:24:26.941Z,6.50
2024-02-21T07:29:31.992Z,6.10
2024-02-21T07:34:35.553Z,5.70
2024-02-21T07:39:39.670Z,5.50
2024-02-21T07:44:44.590Z,5.70
2024-02-21T07:49:50.298Z,5.90
2024-02-21T07:54:54.151Z,6.30
2024-02-21T07:59:59.074Z,6.70
2024-02-21T08:05:02.848Z,6.80
2024-02-21T08:10:09.518Z,7.20
2024-02-21T08:15:14.818Z,7.40
2024-02-21T08:20:18.609Z,7.50
2024-02-21T08:25:22.212Z,8.00
2024-02-21T08:30:27.195Z,8.40
2024-02-21T08:35:30.813Z,8.80
2024-02-21T08:40:36.630Z,9.30
2024-02-21T08:45:41.747Z,9.60
2024-02-21T08:50:45.571Z,9.80
2024-02-21T08:55:49.318Z,9.80
2024-02-21T09:00:54.639Z,9.30
2024-02-21T09:05:58.428Z,9.50
2024-02-21T09:11:03.710Z,9.30
2024-02-21T09:16:10.524Z,9.20
2024-02-21T09:21:14.404Z,9.40
2024-02-21T09:26:18.384Z,9.70
2024-02-21T09:31:23.484Z,10.30
2024-02-21T09:36:27.186Z,10.50
2024-02-21T09:41:31.000Z,10.70
2024-02-21T09:46:53.494Z,11.20
2024-02-21T09:52:00.089Z,12.10
2024-02-21T09:57:04.799Z,12.80
2024-02-21T10:02:10.083Z,13.30
2024-02-21T10:07:15.518Z,13.30
2024-02-21T10:12:20.610Z,13.50
2024-02-21T10:17:25.852Z,13.30
2024-02-21T10:22:31.877Z,12.70
2024-02-21T10:27:35.514Z,12.40
2024-02-21T10:32:50.970Z,12.00
2024-02-21T10:37:56.969Z,11.90
2024-02-21T10:43:02.092Z,12.50
2024-02-21T10:48:13.410Z,12.80
2024-02-21T10:53:27.054Z,13.30
2024-02-21T10:58:31.831Z,13.70
2024-02-21T11:03:37.904Z,14.00
2024-02-21T11:08:41.779Z,14.20
2024-02-21T11:13:47.296Z,13.90
2024-02-21T11:18:52.554Z,13.80
2024-02-21T11:23:58.897Z,13.80
2024-02-21T11:29:04.056Z,13.60
2024-02-21T11:34:11.609Z,13.30
2024-02-21T11:39:18.401Z,13.30
2024-02-21T11:44:22.213Z,13.40
2024-02-21T11:49:30.872Z,13.20
2024-02-21T11:54:35.022Z,13.30
2024-02-21T11:59:39.746Z,13.00
2024-02-21T12:04:46.035Z,13.10
2024-02-21T12:09:49.701Z,12.90
2024-02-21T12:15:00.295Z,12.70
2024-02-21T12:20:10.966Z,13.00
2024-02-21T12:25:24.262Z,13.10
2024-02-21T12:30:27.946Z,13.20
2024-02-21T12:35:34.848Z,13.40
2024-02-21T12:40:39.893Z,13.50
2024-02-21T12:45:43.730Z,13.60
2024-02-21T12:50:52.849Z,13.40
2024-02-21T12:55:56.269Z,13.50
2024-02-21T13:00:59.923Z,13.80
2024-02-21T13:06:05.666Z,13.70
2024-02-21T13:11:09.949Z,13.50
2024-02-21T13:16:13.623Z,13.60
2024-02-21T13:21:18.735Z,13.60
2024-02-21T13:26:22.254Z,13.70
2024-02-21T13:31:26.861Z,13.70
2024-02-21T13:36:32.166Z,13.70
2024-02-21T13:41:36.042Z,13.70
2024-02-21T13:46:40.629Z,14.00
2024-02-21T13:51:46.297Z,14.00
2024-02-21T13:56:50.197Z,13.80
2024-02-21T14:01:54.672Z,13.80
2024-02-21T14:07:00.560Z,13.70
2024-02-21T14:12:04.770Z,13.80
2024-02-21T14:17:08.662Z,13.80
2024-02-21T14:22:13.910Z,13.70
2024-02-21T14:27:17.519Z,13.50
2024-02-21T14:32:21.258Z,13.40
2024-02-21T14:37:26.386Z,13.40
2024-02-21T14:42:30.102Z,13.50
2024-02-21T14:47:34.221Z,13.30
2024-02-21T14:52:39.666Z,13.20
2024-02-21T14:57:44.343Z,13.00
2024-02-21T15:02:48.195Z,12.80
2024-02-21T15:07:53.655Z,12.70
2024-02-21T15:12:57.510Z,12.50
2024-02-21T15:18:01.352Z,12.50
2024-02-21T15:23:07.093Z,12.40
2024-02-21T15:28:11.657Z,12.20
2024-02-21T15:33:15.953Z,12.10
2024-02-21T15:38:21.686Z,12.00
2024-02-21T15:43:26.127Z,11.90
2024-02-21T15:48:30.037Z,11.80
2024-02-21T15:53:36.876Z,11.60
2024-02-21T15:58:41.727Z,11.50
2024-02-21T16:03:45.512Z,11.40
2024-02-21T16:08:51.679Z,11.30
2024-02-21T16:13:56.455Z,11.20
2024-02-21T16:19:00.824Z,11.10
2024-02-21T16:24:06.811Z,11.00
2024-02-21T16:29:16.065Z,10.80
2024-02-21T16:34:19.982Z,10.60
2024-02-21T16:39:28.642Z,10.40
2024-02-21T16:44:34.652Z,10.20
2024-02-21T16:49:38.712Z,10.10
2024-02-21T16:54:45.797Z,9.90
2024-02-21T16:59:49.399Z,9.70
2024-02-21T17:04:55.142Z,9.50
2024-02-21T17:10:02.277Z,9.40
2024-02-21T17:15:08.522Z,9.30
2024-02-21T17:20:14.887Z,9.20
2024-02-21T17:25:19.994Z,9.10
2024-02-21T17:30:26.369Z,9.10
2024-02-21T17:35:30.232Z,9.00
2024-02-21T17:40:37.516Z,9.00
2024-02-21T17:45:42.141Z,9.10
2024-02-21T17:50:45.834Z,9.10
2024-02-21T17:55:51.915Z,9.10
2024-02-21T18:00:59.020Z,9.20
2024-02-21T18:06:04.253Z,9.20
2024-02-21T18:11:11.833Z,9.20
2024-02-21T18:16:16.982Z,9.30
2024-02-21T18:21:21.425Z,9.30
2024-02-21T18:26:30.983Z,9.30
2024-02-21T18:31:36.004Z,9.40
2024-02-21T18:36:39.759Z,9.40
2024-02-21T18:41:46.593Z,9.30
2024-02-21T18:46:51.742Z,9.40
2024-02-21T18:52:01.366Z,9.40
2024-02-21T18:57:06.862Z,9.40
2024-02-21T19:02:10.721Z,9.40
2024-02-21T19:07:14.700Z,9.60
2024-02-21T19:12:20.216Z,9.80
2024-02-21T19:17:24.418Z,10.00
2024-02-21T19:22:31.054Z,10.20
2024-02-21T19:28:00.189Z,10.20
2024-02-21T19:33:04.381Z,10.20
2024-02-21T19:38:10.453Z,10.10
2024-02-21T19:43:17.967Z,10.00
2024-02-21T19:48:22.004Z,10.00
2024-02-21T19:53:25.943Z,10.10
2024-02-21T19:58:33.495Z,10.10
2024-02-21T20:03:38.065Z,10.00
2024-02-21T20:08:44.044Z,9.80
2024-02-21T20:13:50.617Z,9.70
2024-02-21T20:18:54.716Z,9.60
2024-02-21T20:23:59.994Z,9.70
2024-02-21T20:29:08.339Z,9.90
2024-02-21T20:34:12.364Z,10.10
2024-02-21T20:39:16.972Z,10.20
2024-02-21T20:44:22.162Z,10.30
2024-02-21T20:49:27.464Z,10.30
2024-02-21T20:54:32.528Z,10.50
2024-02-21T20:59:37.755Z,10.50
2024-02-21T21:04:42.697Z,10.50
2024-02-21T21:09:47.707Z,10.60
2024-02-21T21:14:55.410Z,10.70
2024-02-21T21:19:59.322Z,10.70
2024-02-21T21:25:05.494Z,10.90
2024-02-21T21:30:11.971Z,10.80
2024-02-21T21:35:15.997Z,10.60
2024-02-21T21:40:19.715Z,10.60
2024-02-21T21:45:24.691Z,10.60
2024-02-21T21:50:28.466Z,10.70
2024-02-21T21:55:33.136Z,10.70
2024-02-21T22:00:38.037Z,10.80
2024-02-21T22:05:41.558Z,10.70
2024-02-21T22:10:45.372Z,10.70
2024-02-21T22:15:50.289Z,10.70
2024-02-21T22:20:53.964Z,10.70
2024-02-21T22:25:57.508Z,10.80
2024-02-21T22:31:02.658Z,11.00
2024-02-21T22:36:08.628Z,11.10
2024-02-21T22:41:12.449Z,11.30
2024-02-21T22:46:17.772Z,11.20
2024-02-21T22:51:24.839Z,11.30
2024-02-21T22:56:29.701Z,11.40
2024-02-21T23:01:38.308Z,11.50
2024-02-21T23:06:42.960Z,11.60
2024-02-21T23:11:46.791Z,11.60
2024-02-21T23:16:51.939Z,11.50
2024-02-21T23:22:04.111Z,11.40
2024-02-21T23:27:09.088Z,11.30
2024-02-21T23:32:15.586Z,11.30
2024-02-21T23:37:21.465Z,11.30
2024-02-21T23:42:31.486Z,11.10
2024-02-21T23:47:36.668Z,11.10
2024-02-21T23:52:42.424Z,11.00
2024-02-21T23:57:53.479Z,11.00
